sensor_id;sensor_type;location;lat;lon;timestamp;temperature;humidity
9915;DHT22;4996;48.746;9.174;2023-04-15T00:00:41;7.80;99.90
9915;DHT22;4996;48.746;9.174;2023-04-15T00:03:07;7.70;99.90
9915;DHT22;4996;48.746;9.174;2023-04-15T00:05:33;7.70;99.90
9915;DHT22;4996;48.746;9.174;2023-04-15T00:08:00;7.70;99.90
9915;DHT22;4996;48.746;9.174;2023-04-15T00:10:26;7.60;99.90
9915;DHT22;4996;48.746;9.174;2023-04-15T00:12:52;7.60;99.90
9915;DHT22;4996;48.746;9.174;2023-04-15T00:15:18;8.00;99.90
9915;DHT22;4996;48.746;9.174;2023-04-15T00:17:44;7.60;99.90
9915;DHT22;4996;48.746;9.174;2023-04-15T00:20:10;7.60;99.90
9915;DHT22;4996;48.746;9.174;2023-04-15T00:22:36;7.60;99.90
9915;DHT22;4996;48.746;9.174;2023-04-15T00:25:02;7.50;99.90
9915;DHT22;4996;48.746;9.174;2023-04-15T00:27:27;7.50;99.90
9915;DHT22;4996;48.746;9.174;2023-04-15T00:29:54;7.50;99.90
9915;DHT22;4996;48.746;9.174;2023-04-15T00:32:19;7.50;99.90
9915;DHT22;4996;48.746;9.174;2023-04-15T00:34:45;7.40;99.90
9915;DHT22;4996;48.746;9.174;2023-04-15T00:37:10;7.40;99.90
9915;DHT22;4996;48.746;9.174;2023-04-15T00:39:36;7.40;99.90
9915;DHT22;4996;48.746;9.174;2023-04-15T00:42:03;7.40;99.90
9915;DHT22;4996;48.746;9.174;2023-04-15T00:44:29;7.40;99.90
9915;DHT22;4996;48.746;9.174;2023-04-15T00:46:54;7.40;99.90
9915;DHT22;4996;48.746;9.174;2023-04-15T00:49:21;7.40;99.90
9915;DHT22;4996;48.746;9.174;2023-04-15T00:51:47;7.40;99.90
9915;DHT22;4996;48.746;9.174;2023-04-15T00:54:13;7.30;99.90
9915;DHT22;4996;48.746;9.174;2023-04-15T00:56:38;7.30;99.90
9915;DHT22;4996;48.746;9.174;2023-04-15T00:59:04;7.30;99.90
9915;DHT22;4996;48.746;9.174;2023-04-15T01:01:33;7.30;99.90
9915;DHT22;4996;48.746;9.174;2023-04-15T01:03:59;7.30;99.90
9915;DHT22;4996;48.746;9.174;2023-04-15T01:06:25;7.30;99.90
9915;DHT22;4996;48.746;9.174;2023-04-15T01:08:52;7.20;99.90
9915;DHT22;4996;48.746;9.174;2023-04-15T01:11:18;7.20;99.90
9915;DHT22;4996;48.746;9.174;2023-04-15T01:13:45;7.20;99.90
9915;DHT22;4996;48.746;9.174;2023-04-15T01:16:12;7.20;99.90
9915;DHT22;4996;48.746;9.174;2023-04-15T01:18:38;7.20;99.90
9915;DHT22;4996;48.746;9.174;2023-04-15T01:21:04;7.30;99.90
9915;DHT22;4996;48.746;9.174;2023-04-15T01:23:32;7.20;99.90
9915;DHT22;4996;48.746;9.174;2023-04-15T01:26:01;7.20;99.90
9915;DHT22;4996;48.746;9.174;2023-04-15T01:28:26;7.20;99.90
9915;DHT22;4996;48.746;9.174;2023-04-15T01:31:12;7.20;99.90
9915;DHT22;4996;48.746;9.174;2023-04-15T01:33:39;7.20;99.90
9915;DHT22;4996;48.746;9.174;2023-04-15T01:36:06;7.10;99.90
9915;DHT22;4996;48.746;9.174;2023-04-15T01:38:33;7.10;99.90
9915;DHT22;4996;48.746;9.174;2023-04-15T01:40:58;7.00;99.90
9915;DHT22;4996;48.746;9.174;2023-04-15T01:43:27;6.90;99.90
9915;DHT22;4996;48.746;9.174;2023-04-15T01:45:53;6.90;99.90
9915;DHT22;4996;48.746;9.174;2023-04-15T01:48:19;6.90;99.90
9915;DHT22;4996;48.746;9.174;2023-04-15T01:50:44;6.80;99.90
9915;DHT22;4996;48.746;9.174;2023-04-15T01:53:10;6.80;99.90
9915;DHT22;4996;48.746;9.174;2023-04-15T01:55:36;6.80;99.90
9915;DHT22;4996;48.746;9.174;2023-04-15T01:58:02;6.70;99.90
9915;DHT22;4996;48.746;9.174;2023-04-15T02:00:28;6.70;99.90
9915;DHT22;4996;48.746;9.174;2023-04-15T02:02:54;6.70;99.90
9915;DHT22;4996;48.746;9.174;2023-04-15T02:05:20;6.70;99.90
9915;DHT22;4996;48.746;9.174;2023-04-15T02:07:46;6.60;99.90
9915;DHT22;4996;48.746;9.174;2023-04-15T02:10:12;6.60;99.90
9915;DHT22;4996;48.746;9.174;2023-04-15T02:12:38;6.60;99.90
9915;DHT22;4996;48.746;9.174;2023-04-15T02:15:04;6.60;99.90
9915;DHT22;4996;48.746;9.174;2023-04-15T02:17:32;6.60;99.90
9915;DHT22;4996;48.746;9.174;2023-04-15T02:19:59;6.50;99.90
9915;DHT22;4996;48.746;9.174;2023-04-15T02:22:25;6.50;99.90
9915;DHT22;4996;48.746;9.174;2023-04-15T02:24:50;6.50;99.90
9915;DHT22;4996;48.746;9.174;2023-04-15T02:27:16;6.50;99.90
9915;DHT22;4996;48.746;9.174;2023-04-15T02:29:43;6.50;99.90
9915;DHT22;4996;48.746;9.174;2023-04-15T02:32:10;6.50;99.90
9915;DHT22;4996;48.746;9.174;2023-04-15T02:34:36;6.50;99.90
9915;DHT22;4996;48.746;9.174;2023-04-15T02:37:09;6.50;99.90
9915;DHT22;4996;48.746;9.174;2023-04-15T02:39:34;6.60;99.90
9915;DHT22;4996;48.746;9.174;2023-04-15T02:42:00;6.50;99.90
9915;DHT22;4996;48.746;9.174;2023-04-15T02:44:26;6.50;99.90
9915;DHT22;4996;48.746;9.174;2023-04-15T02:46:53;6.40;99.90
9915;DHT22;4996;48.746;9.174;2023-04-15T02:49:20;6.40;99.90
9915;DHT22;4996;48.746;9.174;2023-04-15T02:51:46;6.40;99.90
9915;DHT22;4996;48.746;9.174;2023-04-15T02:54:14;6.40;99.90
9915;DHT22;4996;48.746;9.174;2023-04-15T02:56:40;6.40;99.90
9915;DHT22;4996;48.746;9.174;2023-04-15T02:59:05;6.40;99.90
9915;DHT22;4996;48.746;9.174;2023-04-15T03:01:31;6.30;99.90
9915;DHT22;4996;48.746;9.174;2023-04-15T03:03:56;6.30;99.90
9915;DHT22;4996;48.746;9.174;2023-04-15T03:06:22;6.30;99.90
9915;DHT22;4996;48.746;9.174;2023-04-15T03:08:49;6.30;99.90
9915;DHT22;4996;48.746;9.174;2023-04-15T03:11:15;6.30;99.90
9915;DHT22;4996;48.746;9.174;2023-04-15T03:13:41;6.20;99.90
9915;DHT22;4996;48.746;9.174;2023-04-15T03:16:08;6.20;99.90
9915;DHT22;4996;48.746;9.174;2023-04-15T03:18:33;6.20;99.90
9915;DHT22;4996;48.746;9.174;2023-04-15T03:20:59;6.20;99.90
9915;DHT22;4996;48.746;9.174;2023-04-15T03:23:24;6.20;99.90
9915;DHT22;4996;48.746;9.174;2023-04-15T03:25:50;6.20;99.90
9915;DHT22;4996;48.746;9.174;2023-04-15T03:28:16;6.20;99.90
9915;DHT22;4996;48.746;9.174;2023-04-15T03:30:41;6.20;99.90
9915;DHT22;4996;48.746;9.174;2023-04-15T03:33:07;6.20;99.90
9915;DHT22;4996;48.746;9.174;2023-04-15T03:35:33;6.10;99.90
9915;DHT22;4996;48.746;9.174;2023-04-15T03:37:58;6.10;99.90
9915;DHT22;4996;48.746;9.174;2023-04-15T03:40:24;6.10;99.90
9915;DHT22;4996;48.746;9.174;2023-04-15T03:42:49;6.10;99.90
9915;DHT22;4996;48.746;9.174;2023-04-15T03:45:15;6.10;99.90
9915;DHT22;4996;48.746;9.174;2023-04-15T03:47:41;6.10;99.90
9915;DHT22;4996;48.746;9.174;2023-04-15T03:50:07;6.10;99.90
9915;DHT22;4996;48.746;9.174;2023-04-15T03:52:32;6.20;99.90
9915;DHT22;4996;48.746;9.174;2023-04-15T03:54:58;6.20;99.90
9915;DHT22;4996;48.746;9.174;2023-04-15T03:57:23;6.30;99.90
9915;DHT22;4996;48.746;9.174;2023-04-15T03:59:49;6.30;99.90
9915;DHT22;4996;48.746;9.174;2023-04-15T04:02:15;6.30;99.90
9915;DHT22;4996;48.746;9.174;2023-04-15T04:04:41;6.30;99.90
9915;DHT22;4996;48.746;9.174;2023-04-15T04:07:07;6.30;99.90
9915;DHT22;4996;48.746;9.174;2023-04-15T04:09:33;6.30;99.90
9915;DHT22;4996;48.746;9.174;2023-04-15T04:11:58;6.20;99.90
9915;DHT22;4996;48.746;9.174;2023-04-15T04:14:24;6.20;99.90
9915;DHT22;4996;48.746;9.174;2023-04-15T04:16:54;6.20;99.90
9915;DHT22;4996;48.746;9.174;2023-04-15T04:19:20;6.20;99.90
9915;DHT22;4996;48.746;9.174;2023-04-15T04:21:45;6.10;99.90
9915;DHT22;4996;48.746;9.174;2023-04-15T04:24:11;6.00;99.90
9915;DHT22;4996;48.746;9.174;2023-04-15T04:26:36;6.10;99.90
9915;DHT22;4996;48.746;9.174;2023-04-15T04:29:02;6.10;99.90
9915;DHT22;4996;48.746;9.174;2023-04-15T04:31:27;6.10;99.90
9915;DHT22;4996;48.746;9.174;2023-04-15T04:33:53;6.10;99.90
9915;DHT22;4996;48.746;9.174;2023-04-15T04:36:18;6.10;99.90
9915;DHT22;4996;48.746;9.174;2023-04-15T04:38:44;6.10;99.90
9915;DHT22;4996;48.746;9.174;2023-04-15T04:41:09;6.20;99.90
9915;DHT22;4996;48.746;9.174;2023-04-15T04:43:35;6.20;99.90
9915;DHT22;4996;48.746;9.174;2023-04-15T04:46:00;6.20;99.90
9915;DHT22;4996;48.746;9.174;2023-04-15T04:48:26;6.20;99.90
9915;DHT22;4996;48.746;9.174;2023-04-15T04:50:52;6.20;99.90
9915;DHT22;4996;48.746;9.174;2023-04-15T04:53:17;6.10;99.90
9915;DHT22;4996;48.746;9.174;2023-04-15T04:55:43;6.10;99.90
9915;DHT22;4996;48.746;9.174;2023-04-15T04:58:08;6.20;99.90
9915;DHT22;4996;48.746;9.174;2023-04-15T05:00:34;6.10;99.90
9915;DHT22;4996;48.746;9.174;2023-04-15T05:02:59;6.10;99.90
9915;DHT22;4996;48.746;9.174;2023-04-15T05:05:25;6.10;99.90
9915;DHT22;4996;48.746;9.174;2023-04-15T05:07:51;6.20;99.90
9915;DHT22;4996;48.746;9.174;2023-04-15T05:10:17;6.10;99.90
9915;DHT22;4996;48.746;9.174;2023-04-15T05:12:42;6.10;99.90
9915;DHT22;4996;48.746;9.174;2023-04-15T05:15:08;6.10;99.90
9915;DHT22;4996;48.746;9.174;2023-04-15T05:17:34;6.00;99.90
9915;DHT22;4996;48.746;9.174;2023-04-15T05:20:00;6.00;99.90
9915;DHT22;4996;48.746;9.174;2023-04-15T05:22:26;6.10;99.90
9915;DHT22;4996;48.746;9.174;2023-04-15T05:24:52;6.10;99.90
9915;DHT22;4996;48.746;9.174;2023-04-15T05:27:17;6.10;99.90
9915;DHT22;4996;48.746;9.174;2023-04-15T05:29:43;6.10;99.90
9915;DHT22;4996;48.746;9.174;2023-04-15T05:32:09;6.10;99.90
9915;DHT22;4996;48.746;9.174;2023-04-15T05:34:35;6.10;99.90
9915;DHT22;4996;48.746;9.174;2023-04-15T05:37:00;6.10;99.90
9915;DHT22;4996;48.746;9.174;2023-04-15T05:39:26;6.20;99.90
9915;DHT22;4996;48.746;9.174;2023-04-15T05:41:52;6.20;99.90
9915;DHT22;4996;48.746;9.174;2023-04-15T05:44:17;6.30;99.90
9915;DHT22;4996;48.746;9.174;2023-04-15T05:46:43;6.40;99.90
9915;DHT22;4996;48.746;9.174;2023-04-15T05:49:08;6.40;99.90
9915;DHT22;4996;48.746;9.174;2023-04-15T05:51:34;6.50;99.90
9915;DHT22;4996;48.746;9.174;2023-04-15T05:54:00;6.50;99.90
9915;DHT22;4996;48.746;9.174;2023-04-15T05:56:26;6.60;99.90
9915;DHT22;4996;48.746;9.174;2023-04-15T05:58:51;6.70;99.90
9915;DHT22;4996;48.746;9.174;2023-04-15T06:01:17;6.80;99.90
9915;DHT22;4996;48.746;9.174;2023-04-15T06:03:42;6.90;99.90
9915;DHT22;4996;48.746;9.174;2023-04-15T06:06:09;7.00;99.90
9915;DHT22;4996;48.746;9.174;2023-04-15T06:08:34;7.10;99.90
9915;DHT22;4996;48.746;9.174;2023-04-15T06:11:00;7.30;99.90
9915;DHT22;4996;48.746;9.174;2023-04-15T06:13:25;7.40;99.90
9915;DHT22;4996;48.746;9.174;2023-04-15T06:15:51;7.50;99.90
9915;DHT22;4996;48.746;9.174;2023-04-15T06:18:17;7.60;99.90
9915;DHT22;4996;48.746;9.174;2023-04-15T06:20:44;7.70;99.90
9915;DHT22;4996;48.746;9.174;2023-04-15T06:23:10;7.80;99.90
9915;DHT22;4996;48.746;9.174;2023-04-15T06:25:35;7.90;99.90
9915;DHT22;4996;48.746;9.174;2023-04-15T06:28:01;8.10;99.90
9915;DHT22;4996;48.746;9.174;2023-04-15T06:30:26;8.30;99.90
9915;DHT22;4996;48.746;9.174;2023-04-15T06:32:52;8.40;99.90
9915;DHT22;4996;48.746;9.174;2023-04-15T06:35:19;8.50;99.90
9915;DHT22;4996;48.746;9.174;2023-04-15T06:37:44;8.60;99.90
9915;DHT22;4996;48.746;9.174;2023-04-15T06:40:10;8.80;99.90
9915;DHT22;4996;48.746;9.174;2023-04-15T06:42:36;8.90;99.90
9915;DHT22;4996;48.746;9.174;2023-04-15T06:45:02;9.10;99.90
9915;DHT22;4996;48.746;9.174;2023-04-15T06:47:28;9.20;99.90
9915;DHT22;4996;48.746;9.174;2023-04-15T06:49:53;9.50;99.90
9915;DHT22;4996;48.746;9.174;2023-04-15T06:52:19;9.60;99.90
9915;DHT22;4996;48.746;9.174;2023-04-15T06:54:44;9.80;99.90
9915;DHT22;4996;48.746;9.174;2023-04-15T06:57:10;10.00;99.90
9915;DHT22;4996;48.746;9.174;2023-04-15T06:59:36;10.00;99.90
9915;DHT22;4996;48.746;9.174;2023-04-15T07:02:01;10.00;99.90
9915;DHT22;4996;48.746;9.174;2023-04-15T07:04:27;10.10;99.90
9915;DHT22;4996;48.746;9.174;2023-04-15T07:06:53;10.40;99.90
9915;DHT22;4996;48.746;9.174;2023-04-15T07:09:23;10.40;99.90
9915;DHT22;4996;48.746;9.174;2023-04-15T07:11:49;10.40;99.90
9915;DHT22;4996;48.746;9.174;2023-04-15T07:14:14;10.50;99.90
9915;DHT22;4996;48.746;9.174;2023-04-15T07:16:40;10.50;99.90
9915;DHT22;4996;48.746;9.174;2023-04-15T07:19:06;10.60;99.90
9915;DHT22;4996;48.746;9.174;2023-04-15T07:21:31;10.60;99.90
9915;DHT22;4996;48.746;9.174;2023-04-15T07:23:57;10.80;99.90
9915;DHT22;4996;48.746;9.174;2023-04-15T07:26:23;10.90;99.90
9915;DHT22;4996;48.746;9.174;2023-04-15T07:28:49;11.20;99.90
9915;DHT22;4996;48.746;9.174;2023-04-15T07:31:14;11.40;99.90
9915;DHT22;4996;48.746;9.174;2023-04-15T07:33:41;11.50;99.90
9915;DHT22;4996;48.746;9.174;2023-04-15T07:36:06;11.70;99.90
9915;DHT22;4996;48.746;9.174;2023-04-15T07:38:32;12.00;99.90
9915;DHT22;4996;48.746;9.174;2023-04-15T07:40:57;12.20;99.90
9915;DHT22;4996;48.746;9.174;2023-04-15T07:43:23;12.50;99.90
9915;DHT22;4996;48.746;9.174;2023-04-15T07:45:49;12.50;99.90
9915;DHT22;4996;48.746;9.174;2023-04-15T07:48:14;12.80;99.90
9915;DHT22;4996;48.746;9.174;2023-04-15T07:50:40;12.80;99.90
9915;DHT22;4996;48.746;9.174;2023-04-15T07:53:06;13.00;99.90
9915;DHT22;4996;48.746;9.174;2023-04-15T07:55:31;13.00;99.90
9915;DHT22;4996;48.746;9.174;2023-04-15T07:57:57;12.90;99.90
9915;DHT22;4996;48.746;9.174;2023-04-15T08:00:22;12.80;99.90
9915;DHT22;4996;48.746;9.174;2023-04-15T08:02:48;12.80;99.90
9915;DHT22;4996;48.746;9.174;2023-04-15T08:05:14;12.60;99.90
9915;DHT22;4996;48.746;9.174;2023-04-15T08:07:39;12.70;99.90
9915;DHT22;4996;48.746;9.174;2023-04-15T08:10:05;12.60;99.90
9915;DHT22;4996;48.746;9.174;2023-04-15T08:12:31;12.60;99.90
9915;DHT22;4996;48.746;9.174;2023-04-15T08:14:57;12.60;99.90
9915;DHT22;4996;48.746;9.174;2023-04-15T08:17:23;12.80;99.90
9915;DHT22;4996;48.746;9.174;2023-04-15T08:19:48;12.70;99.90
9915;DHT22;4996;48.746;9.174;2023-04-15T08:22:14;12.80;99.90
9915;DHT22;4996;48.746;9.174;2023-04-15T08:24:40;13.20;99.90
9915;DHT22;4996;48.746;9.174;2023-04-15T08:27:05;13.30;99.90
9915;DHT22;4996;48.746;9.174;2023-04-15T08:29:32;13.30;99.90
9915;DHT22;4996;48.746;9.174;2023-04-15T08:31:59;13.60;99.90
9915;DHT22;4996;48.746;9.174;2023-04-15T08:34:25;13.50;99.90
9915;DHT22;4996;48.746;9.174;2023-04-15T08:36:50;13.50;99.90
9915;DHT22;4996;48.746;9.174;2023-04-15T08:39:16;13.50;99.90
9915;DHT22;4996;48.746;9.174;2023-04-15T08:41:46;13.50;99.90
9915;DHT22;4996;48.746;9.174;2023-04-15T08:44:13;13.80;99.90
9915;DHT22;4996;48.746;9.174;2023-04-15T08:46:40;14.10;99.10
9915;DHT22;4996;48.746;9.174;2023-04-15T08:49:09;14.40;98.70
9915;DHT22;4996;48.746;9.174;2023-04-15T08:51:35;14.50;97.80
9915;DHT22;4996;48.746;9.174;2023-04-15T08:54:01;14.40;97.50
9915;DHT22;4996;48.746;9.174;2023-04-15T08:56:30;14.50;97.30
9915;DHT22;4996;48.746;9.174;2023-04-15T08:58:58;14.80;97.10
9915;DHT22;4996;48.746;9.174;2023-04-15T09:01:24;15.30;97.00
9915;DHT22;4996;48.746;9.174;2023-04-15T09:03:51;15.70;95.20
9915;DHT22;4996;48.746;9.174;2023-04-15T09:06:20;15.80;93.50
9915;DHT22;4996;48.746;9.174;2023-04-15T09:08:46;15.90;93.50
9915;DHT22;4996;48.746;9.174;2023-04-15T09:11:12;16.20;92.10
9915;DHT22;4996;48.746;9.174;2023-04-15T09:13:38;16.20;92.00
9915;DHT22;4996;48.746;9.174;2023-04-15T09:16:05;16.30;91.60
9915;DHT22;4996;48.746;9.174;2023-04-15T09:18:32;16.90;91.80
9915;DHT22;4996;48.746;9.174;2023-04-15T09:23:30;16.50;90.30
9915;DHT22;4996;48.746;9.174;2023-04-15T09:25:56;16.50;89.60
9915;DHT22;4996;48.746;9.174;2023-04-15T09:28:25;16.50;89.20
9915;DHT22;4996;48.746;9.174;2023-04-15T09:30:54;16.10;90.20
9915;DHT22;4996;48.746;9.174;2023-04-15T09:33:20;16.20;90.00
9915;DHT22;4996;48.746;9.174;2023-04-15T09:36:04;16.30;89.20
9915;DHT22;4996;48.746;9.174;2023-04-15T09:38:31;16.30;89.50
9915;DHT22;4996;48.746;9.174;2023-04-15T09:40:57;16.80;90.10
9915;DHT22;4996;48.746;9.174;2023-04-15T09:43:37;16.50;90.00
9915;DHT22;4996;48.746;9.174;2023-04-15T09:46:03;16.30;90.10
9915;DHT22;4996;48.746;9.174;2023-04-15T09:48:29;16.40;89.80
9915;DHT22;4996;48.746;9.174;2023-04-15T09:50:59;16.60;89.60
9915;DHT22;4996;48.746;9.174;2023-04-15T09:53:26;16.60;87.70
9915;DHT22;4996;48.746;9.174;2023-04-15T09:55:54;16.60;87.70
9915;DHT22;4996;48.746;9.174;2023-04-15T09:58:31;16.10;87.60
9915;DHT22;4996;48.746;9.174;2023-04-15T10:00:59;15.90;88.10
9915;DHT22;4996;48.746;9.174;2023-04-15T10:03:28;15.30;87.70
9915;DHT22;4996;48.746;9.174;2023-04-15T10:05:55;14.90;87.20
9915;DHT22;4996;48.746;9.174;2023-04-15T10:08:27;14.70;87.50
9915;DHT22;4996;48.746;9.174;2023-04-15T10:10:53;14.70;88.50
9915;DHT22;4996;48.746;9.174;2023-04-15T10:13:20;14.90;89.00
9915;DHT22;4996;48.746;9.174;2023-04-15T10:15:51;15.20;89.30
9915;DHT22;4996;48.746;9.174;2023-04-15T10:18:19;15.40;89.10
9915;DHT22;4996;48.746;9.174;2023-04-15T10:20:47;15.70;89.00
9915;DHT22;4996;48.746;9.174;2023-04-15T10:23:14;15.90;87.30
9915;DHT22;4996;48.746;9.174;2023-04-15T10:25:40;15.60;86.70
9915;DHT22;4996;48.746;9.174;2023-04-15T10:28:06;15.70;86.40
9915;DHT22;4996;48.746;9.174;2023-04-15T10:30:35;15.60;84.50
9915;DHT22;4996;48.746;9.174;2023-04-15T10:33:02;15.70;85.60
9915;DHT22;4996;48.746;9.174;2023-04-15T10:35:30;15.70;86.20
9915;DHT22;4996;48.746;9.174;2023-04-15T10:37:56;15.60;85.50
9915;DHT22;4996;48.746;9.174;2023-04-15T10:40:31;15.40;86.00
9915;DHT22;4996;48.746;9.174;2023-04-15T10:42:59;15.60;84.80
9915;DHT22;4996;48.746;9.174;2023-04-15T10:45:27;15.60;84.20
9915;DHT22;4996;48.746;9.174;2023-04-15T10:47:56;15.70;85.70
9915;DHT22;4996;48.746;9.174;2023-04-15T10:50:24;16.20;84.50
9915;DHT22;4996;48.746;9.174;2023-04-15T10:52:51;16.00;84.30
9915;DHT22;4996;48.746;9.174;2023-04-15T10:55:21;15.80;81.60
9915;DHT22;4996;48.746;9.174;2023-04-15T10:57:54;15.80;81.90
9915;DHT22;4996;48.746;9.174;2023-04-15T11:00:28;15.70;84.90
9915;DHT22;4996;48.746;9.174;2023-04-15T11:02:59;16.00;85.20
9915;DHT22;4996;48.746;9.174;2023-04-15T11:08:11;15.80;85.50
9915;DHT22;4996;48.746;9.174;2023-04-15T11:13:04;16.00;85.30
9915;DHT22;4996;48.746;9.174;2023-04-15T11:15:44;15.70;84.30
9915;DHT22;4996;48.746;9.174;2023-04-15T11:20:44;14.80;86.90
9915;DHT22;4996;48.746;9.174;2023-04-15T11:23:10;14.60;87.60
9915;DHT22;4996;48.746;9.174;2023-04-15T11:25:36;14.40;88.40
9915;DHT22;4996;48.746;9.174;2023-04-15T11:28:03;14.20;88.80
9915;DHT22;4996;48.746;9.174;2023-04-15T11:30:31;14.30;89.10
9915;DHT22;4996;48.746;9.174;2023-04-15T11:33:00;15.00;89.30
9915;DHT22;4996;48.746;9.174;2023-04-15T11:35:26;16.00;87.40
9915;DHT22;4996;48.746;9.174;2023-04-15T11:37:51;16.90;84.40
9915;DHT22;4996;48.746;9.174;2023-04-15T11:40:22;17.20;81.30
9915;DHT22;4996;48.746;9.174;2023-04-15T11:45:34;18.10;78.10
9915;DHT22;4996;48.746;9.174;2023-04-15T11:48:07;18.10;76.80
9915;DHT22;4996;48.746;9.174;2023-04-15T11:50:33;18.20;77.10
9915;DHT22;4996;48.746;9.174;2023-04-15T11:53:05;17.60;78.50
9915;DHT22;4996;48.746;9.174;2023-04-15T11:56:00;16.80;79.10
9915;DHT22;4996;48.746;9.174;2023-04-15T11:58:26;16.30;81.40
9915;DHT22;4996;48.746;9.174;2023-04-15T12:00:57;16.00;87.30
9915;DHT22;4996;48.746;9.174;2023-04-15T12:03:26;15.50;91.30
9915;DHT22;4996;48.746;9.174;2023-04-15T12:16:45;14.30;93.20
9915;DHT22;4996;48.746;9.174;2023-04-15T12:19:16;14.30;93.10
9915;DHT22;4996;48.746;9.174;2023-04-15T12:21:46;14.50;92.90
9915;DHT22;4996;48.746;9.174;2023-04-15T12:24:12;14.60;92.20
9915;DHT22;4996;48.746;9.174;2023-04-15T12:26:45;14.70;91.50
9915;DHT22;4996;48.746;9.174;2023-04-15T12:29:11;15.00;91.00
9915;DHT22;4996;48.746;9.174;2023-04-15T12:31:46;15.20;90.00
9915;DHT22;4996;48.746;9.174;2023-04-15T12:34:13;15.00;90.40
9915;DHT22;4996;48.746;9.174;2023-04-15T12:36:39;14.60;90.90
9915;DHT22;4996;48.746;9.174;2023-04-15T12:39:04;14.30;92.80
9915;DHT22;4996;48.746;9.174;2023-04-15T12:41:31;13.70;94.80
9915;DHT22;4996;48.746;9.174;2023-04-15T12:43:57;12.90;97.50
9915;DHT22;4996;48.746;9.174;2023-04-15T12:46:22;12.50;99.90
9915;DHT22;4996;48.746;9.174;2023-04-15T12:48:49;12.60;99.90
9915;DHT22;4996;48.746;9.174;2023-04-15T12:51:16;12.80;99.90
9915;DHT22;4996;48.746;9.174;2023-04-15T12:53:41;12.30;99.90
9915;DHT22;4996;48.746;9.174;2023-04-15T12:56:07;12.10;99.90
9915;DHT22;4996;48.746;9.174;2023-04-15T12:58:32;12.10;99.90
9915;DHT22;4996;48.746;9.174;2023-04-15T13:00:58;11.80;99.90
9915;DHT22;4996;48.746;9.174;2023-04-15T13:03:23;12.00;99.90
9915;DHT22;4996;48.746;9.174;2023-04-15T13:05:49;12.10;99.90
9915;DHT22;4996;48.746;9.174;2023-04-15T13:08:15;11.90;99.90
9915;DHT22;4996;48.746;9.174;2023-04-15T13:10:41;12.00;99.90
9915;DHT22;4996;48.746;9.174;2023-04-15T13:13:07;12.00;99.90
9915;DHT22;4996;48.746;9.174;2023-04-15T13:15:33;12.20;99.90
9915;DHT22;4996;48.746;9.174;2023-04-15T13:17:59;12.60;99.90
9915;DHT22;4996;48.746;9.174;2023-04-15T13:20:24;12.80;99.90
9915;DHT22;4996;48.746;9.174;2023-04-15T13:22:51;13.00;99.90
9915;DHT22;4996;48.746;9.174;2023-04-15T13:25:17;13.00;99.90
9915;DHT22;4996;48.746;9.174;2023-04-15T13:27:42;13.20;99.90
9915;DHT22;4996;48.746;9.174;2023-04-15T13:30:08;13.10;99.90
9915;DHT22;4996;48.746;9.174;2023-04-15T13:32:34;13.30;99.90
9915;DHT22;4996;48.746;9.174;2023-04-15T13:35:00;13.10;99.90
9915;DHT22;4996;48.746;9.174;2023-04-15T13:37:29;13.10;99.90
9915;DHT22;4996;48.746;9.174;2023-04-15T13:39:55;13.10;99.90
9915;DHT22;4996;48.746;9.174;2023-04-15T13:42:21;13.10;99.90
9915;DHT22;4996;48.746;9.174;2023-04-15T13:44:49;13.10;99.90
9915;DHT22;4996;48.746;9.174;2023-04-15T13:47:16;13.20;99.90
9915;DHT22;4996;48.746;9.174;2023-04-15T13:49:41;13.20;99.90
9915;DHT22;4996;48.746;9.174;2023-04-15T13:52:07;13.40;99.90
9915;DHT22;4996;48.746;9.174;2023-04-15T13:54:33;13.60;99.90
9915;DHT22;4996;48.746;9.174;2023-04-15T13:56:58;13.50;98.40
9915;DHT22;4996;48.746;9.174;2023-04-15T13:59:24;13.50;96.20
9915;DHT22;4996;48.746;9.174;2023-04-15T14:01:49;13.50;95.10
9915;DHT22;4996;48.746;9.174;2023-04-15T14:04:15;13.40;94.70
9915;DHT22;4996;48.746;9.174;2023-04-15T14:06:41;13.60;93.90
9915;DHT22;4996;48.746;9.174;2023-04-15T14:09:06;13.50;93.30
9915;DHT22;4996;48.746;9.174;2023-04-15T14:11:32;13.50;92.70
9915;DHT22;4996;48.746;9.174;2023-04-15T14:13:59;13.40;92.70
9915;DHT22;4996;48.746;9.174;2023-04-15T14:16:25;13.40;92.10
9915;DHT22;4996;48.746;9.174;2023-04-15T14:18:50;13.40;90.90
9915;DHT22;4996;48.746;9.174;2023-04-15T14:21:16;13.20;90.40
9915;DHT22;4996;48.746;9.174;2023-04-15T14:23:42;13.20;90.90
9915;DHT22;4996;48.746;9.174;2023-04-15T14:26:07;13.10;87.40
9915;DHT22;4996;48.746;9.174;2023-04-15T14:28:33;13.00;86.80
9915;DHT22;4996;48.746;9.174;2023-04-15T14:30:58;12.80;84.10
9915;DHT22;4996;48.746;9.174;2023-04-15T14:33:24;12.80;85.10
9915;DHT22;4996;48.746;9.174;2023-04-15T14:35:50;12.40;86.10
9915;DHT22;4996;48.746;9.174;2023-04-15T14:38:16;12.50;87.80
9915;DHT22;4996;48.746;9.174;2023-04-15T14:40:41;12.20;89.20
9915;DHT22;4996;48.746;9.174;2023-04-15T14:43:07;12.20;90.20
9915;DHT22;4996;48.746;9.174;2023-04-15T14:45:33;12.40;89.80
9915;DHT22;4996;48.746;9.174;2023-04-15T14:47:59;12.30;90.40
9915;DHT22;4996;48.746;9.174;2023-04-15T14:50:24;12.30;90.60
9915;DHT22;4996;48.746;9.174;2023-04-15T14:52:50;12.20;90.80
9915;DHT22;4996;48.746;9.174;2023-04-15T14:55:15;12.30;90.90
9915;DHT22;4996;48.746;9.174;2023-04-15T14:57:41;12.30;91.10
9915;DHT22;4996;48.746;9.174;2023-04-15T15:00:08;12.20;91.20
9915;DHT22;4996;48.746;9.174;2023-04-15T15:02:34;12.20;91.90
9915;DHT22;4996;48.746;9.174;2023-04-15T15:05:01;12.10;92.50
9915;DHT22;4996;48.746;9.174;2023-04-15T15:07:27;11.70;93.20
9915;DHT22;4996;48.746;9.174;2023-04-15T15:09:53;11.50;93.60
9915;DHT22;4996;48.746;9.174;2023-04-15T15:12:19;11.50;94.60
9915;DHT22;4996;48.746;9.174;2023-04-15T15:14:46;11.40;95.90
9915;DHT22;4996;48.746;9.174;2023-04-15T15:17:12;11.40;96.40
9915;DHT22;4996;48.746;9.174;2023-04-15T15:19:38;11.20;96.90
9915;DHT22;4996;48.746;9.174;2023-04-15T15:22:03;11.20;97.60
9915;DHT22;4996;48.746;9.174;2023-04-15T15:24:29;11.00;98.60
9915;DHT22;4996;48.746;9.174;2023-04-15T15:26:55;11.20;99.10
9915;DHT22;4996;48.746;9.174;2023-04-15T15:29:21;11.20;99.30
9915;DHT22;4996;48.746;9.174;2023-04-15T15:31:47;11.10;99.90
9915;DHT22;4996;48.746;9.174;2023-04-15T15:34:12;11.20;99.90
9915;DHT22;4996;48.746;9.174;2023-04-15T15:36:38;11.30;99.90
9915;DHT22;4996;48.746;9.174;2023-04-15T15:39:03;11.20;99.90
9915;DHT22;4996;48.746;9.174;2023-04-15T15:41:29;11.10;99.90
9915;DHT22;4996;48.746;9.174;2023-04-15T15:43:55;11.10;99.90
9915;DHT22;4996;48.746;9.174;2023-04-15T15:46:20;11.00;99.90
9915;DHT22;4996;48.746;9.174;2023-04-15T15:48:48;11.30;99.90
9915;DHT22;4996;48.746;9.174;2023-04-15T15:51:14;11.30;99.90
9915;DHT22;4996;48.746;9.174;2023-04-15T15:53:39;11.40;99.90
9915;DHT22;4996;48.746;9.174;2023-04-15T15:56:05;11.40;99.90
9915;DHT22;4996;48.746;9.174;2023-04-15T15:58:31;11.30;99.90
9915;DHT22;4996;48.746;9.174;2023-04-15T16:00:56;11.40;99.90
9915;DHT22;4996;48.746;9.174;2023-04-15T16:03:22;11.30;99.90
9915;DHT22;4996;48.746;9.174;2023-04-15T16:05:48;11.30;99.90
9915;DHT22;4996;48.746;9.174;2023-04-15T16:08:14;11.20;99.90
9915;DHT22;4996;48.746;9.174;2023-04-15T16:10:40;11.20;99.90
9915;DHT22;4996;48.746;9.174;2023-04-15T16:13:06;11.30;99.90
9915;DHT22;4996;48.746;9.174;2023-04-15T16:15:32;11.10;99.90
9915;DHT22;4996;48.746;9.174;2023-04-15T16:17:58;11.00;99.90
9915;DHT22;4996;48.746;9.174;2023-04-15T16:20:24;11.10;99.90
9915;DHT22;4996;48.746;9.174;2023-04-15T16:22:49;11.00;99.90
9915;DHT22;4996;48.746;9.174;2023-04-15T16:25:15;10.90;99.90
9915;DHT22;4996;48.746;9.174;2023-04-15T16:27:40;11.10;99.90